Terminal Aerodrome Forecast
Issued by NWS Huntsville, AL

Home | Current Version | Previous Version | Text Only | Print | Product List | Glossary On
Versions: 1 2 3 4 5 6 7 8 9 10 11 12 13 14 15 16 17 18 19 20 21 22 23 24 25 26
000
FTUS44 KHUN 182333
TAFHSV
TAF
KHSV 182333Z 1900/1924 17012G20KT P6SM VCTS SCT040CB OVC120
      TEMPO 1901/1903 VRB20G30KT 3SM TSRA BR OVC025CB
     FM190300 19015G22KT 6SM -RA OVC025
      TEMPO 1903/1905 4SM -TSRA OVC015CB
     FM190700 29010G15KT P6SM VCSH OVC015
     FM191200 30012G17KT P6SM VCSH OVC010=

USA.gov is the U.S. government's official web portal to all federal, state and local government web resources and services.